Thorp, Washington
Current Conditions -  °F | °C
As of 1:53 PM on Thursday 23 Oct 2014 (Local Time) from KELN Reporting Station
Overcast Overcast  
Wind Chill: 55°   Ceiling: 4200
Heat Index: 55°   Visibility: 10mi
Dew Point: 42°   Wind: 10mph
Humidity: 62%   Direction: 300°WNW
Pressure: 29.81"   Gusts: NA
Location:  47.07°N, 120.67°W
Report Text: KELN 232053Z AUTO 30009KT 10SM BKN042 BKN050 OVC060 13/06 A2981 RMK AO2 SLP093 60000 T01280056 51005
Loading
Personal Weather Stations






























Interactive Weather Map
Tropical Storm Tracking
New forecast layout! Learn more

10-Day Weather Forecast

Advertisements
Track Severe Weather on mobile